createdAt,value
2022-11-19T00:02:08.240Z,12.47
2022-11-19T00:04:39.998Z,11.60
2022-11-19T00:07:09.505Z,14.70
2022-11-19T00:09:39.153Z,12.13
2022-11-19T00:12:24.562Z,12.37
2022-11-19T00:14:53.924Z,13.53
2022-11-19T00:17:21.310Z,13.40
2022-11-19T00:19:48.591Z,14.67
2022-11-19T00:22:17.919Z,14.10
2022-11-19T00:24:47.630Z,15.63
2022-11-19T00:27:14.668Z,13.23
2022-11-19T00:29:41.776Z,12.73
2022-11-19T00:32:08.854Z,12.17
2022-11-19T00:34:38.414Z,13.53
2022-11-19T00:37:05.558Z,11.57
2022-11-19T00:39:39.836Z,13.53
2022-11-19T00:42:07.016Z,11.20
2022-11-19T00:44:37.161Z,15.27
2022-11-19T00:47:04.958Z,12.07
2022-11-19T00:49:32.260Z,12.50
2022-11-19T00:51:59.589Z,11.23
2022-11-19T00:54:30.480Z,10.83
2022-11-19T00:57:02.001Z,11.77
2022-11-19T00:59:33.464Z,10.20
2022-11-19T01:02:03.277Z,10.63
2022-11-19T01:04:30.444Z,10.50
2022-11-19T01:06:57.696Z,10.13
2022-11-19T01:09:29.530Z,11.00
2022-11-19T01:11:56.652Z,10.87
2022-11-19T01:14:28.482Z,11.23
2022-11-19T01:16:55.640Z,11.20
2022-11-19T01:19:22.999Z,12.17
2022-11-19T01:21:50.177Z,10.83
2022-11-19T01:24:19.787Z,12.73
2022-11-19T01:26:49.902Z,10.70
2022-11-19T01:29:19.940Z,11.83
2022-11-19T01:31:47.223Z,11.67
2022-11-19T01:34:16.733Z,11.77
2022-11-19T01:36:46.043Z,11.73
2022-11-19T01:39:15.718Z,11.90
2022-11-19T01:41:47.368Z,12.43
2022-11-19T01:44:52.138Z,14.80
2022-11-19T01:47:19.257Z,11.97
2022-11-19T01:49:48.503Z,12.47
2022-11-19T01:52:18.286Z,12.53
2022-11-19T01:54:50.699Z,12.53
2022-11-19T01:57:21.553Z,11.57
2022-11-19T01:59:52.856Z,14.07
2022-11-19T02:02:23.633Z,14.47
2022-11-19T02:04:53.944Z,15.83
2022-11-19T02:07:26.214Z,16.43
2022-11-19T02:09:53.526Z,12.13
2022-11-19T02:12:31.097Z,12.47
2022-11-19T02:15:06.482Z,15.13
2022-11-19T02:17:56.580Z,13.63
2022-11-19T02:20:42.353Z,14.77
2022-11-19T02:23:45.817Z,13.43
2022-11-19T02:26:31.419Z,14.00
2022-11-19T02:29:22.679Z,11.83
2022-11-19T02:32:04.610Z,13.30
2022-11-19T02:34:46.443Z,14.53
2022-11-19T02:37:29.936Z,11.77
2022-11-19T02:40:08.407Z,13.67
2022-11-19T02:42:46.883Z,11.40
2022-11-19T02:45:19.641Z,12.30
2022-11-19T02:47:58.897Z,10.73
2022-11-19T02:50:34.885Z,11.27
2022-11-19T02:53:05.803Z,11.33
2022-11-19T02:55:32.974Z,14.83
2022-11-19T02:58:08.859Z,13.63
2022-11-19T03:01:04.437Z,12.40
2022-11-19T03:03:53.185Z,12.90
2022-11-19T03:06:28.195Z,12.93
2022-11-19T03:08:57.443Z,13.37
2022-11-19T03:11:27.967Z,14.23
2022-11-19T03:14:40.213Z,12.80
2022-11-19T03:17:46.020Z,14.90
2022-11-19T03:20:26.627Z,12.03
2022-11-19T03:22:59.890Z,16.57
2022-11-19T03:25:36.974Z,13.90
2022-11-19T03:28:10.105Z,13.07
2022-11-19T03:30:41.025Z,16.30
2022-11-19T03:33:20.994Z,13.83
2022-11-19T03:35:53.528Z,16.57
2022-11-19T03:38:29.694Z,14.23
2022-11-19T03:41:01.383Z,13.03
2022-11-19T03:43:33.463Z,15.43
2022-11-19T03:46:03.034Z,12.33
2022-11-19T03:48:33.045Z,12.70
2022-11-19T03:51:21.610Z,16.63
2022-11-19T03:53:56.390Z,13.63
2022-11-19T03:56:28.832Z,14.23
2022-11-19T03:58:59.878Z,14.60
2022-11-19T04:01:27.169Z,14.00
2022-11-19T04:04:12.811Z,11.90
2022-11-19T04:06:39.968Z,16.23
2022-11-19T04:09:07.050Z,12.60
2022-11-19T04:11:34.162Z,13.33
2022-11-19T04:14:01.449Z,15.30
2022-11-19T04:16:30.646Z,16.57
2022-11-19T04:19:00.118Z,15.37
2022-11-19T04:21:27.254Z,14.77
2022-11-19T04:23:54.341Z,14.60
2022-11-19T04:26:21.902Z,13.37
2022-11-19T04:28:48.999Z,18.47
2022-11-19T04:31:18.002Z,13.30
2022-11-19T04:33:47.827Z,15.13
2022-11-19T04:36:17.157Z,14.00
2022-11-19T04:38:44.231Z,14.17
2022-11-19T04:41:13.776Z,14.17
2022-11-19T04:43:45.516Z,13.87
2022-11-19T04:46:14.910Z,15.63
2022-11-19T04:48:44.393Z,20.57
2022-11-19T04:51:11.511Z,14.97
2022-11-19T04:53:43.157Z,13.43
2022-11-19T04:56:15.126Z,14.17
2022-11-19T04:58:44.702Z,16.17
2022-11-19T05:01:16.762Z,15.30
2022-11-19T05:03:52.131Z,14.90
2022-11-19T05:06:21.564Z,17.17
2022-11-19T05:08:51.096Z,17.37
2022-11-19T05:11:20.502Z,14.07
2022-11-19T05:13:47.581Z,14.50
2022-11-19T05:16:19.533Z,14.33
2022-11-19T05:18:46.754Z,14.30
2022-11-19T05:21:16.288Z,19.70
2022-11-19T05:23:47.849Z,17.07
2022-11-19T05:26:17.190Z,18.07
2022-11-19T05:28:46.660Z,13.80
2022-11-19T05:31:16.378Z,14.17
2022-11-19T05:33:43.459Z,18.23
2022-11-19T05:36:10.562Z,15.00
2022-11-19T05:38:37.764Z,15.63
2022-11-19T05:41:07.257Z,15.43
2022-11-19T05:43:34.413Z,14.07
2022-11-19T05:46:02.424Z,17.13
2022-11-19T05:48:32.050Z,14.60
2022-11-19T05:51:01.424Z,16.37
2022-11-19T05:53:28.612Z,16.33
2022-11-19T05:55:58.188Z,15.13
2022-11-19T05:58:27.808Z,15.00
2022-11-19T06:01:01.889Z,14.13
2022-11-19T06:03:31.317Z,14.60
2022-11-19T06:06:02.744Z,17.60
2022-11-19T06:08:32.141Z,15.17
2022-11-19T06:11:05.108Z,17.87
2022-11-19T06:13:32.190Z,15.87
2022-11-19T06:15:59.265Z,20.30
2022-11-19T06:18:30.917Z,17.70
2022-11-19T06:20:57.977Z,18.43
2022-11-19T06:23:29.720Z,18.70
2022-11-19T06:25:59.085Z,19.10
2022-11-19T06:28:26.216Z,20.50
2022-11-19T06:30:55.428Z,19.17
2022-11-19T06:33:27.523Z,17.63
2022-11-19T06:35:56.851Z,13.77
2022-11-19T06:38:28.521Z,16.33
2022-11-19T06:40:58.268Z,14.23
2022-11-19T06:43:27.886Z,12.37
2022-11-19T06:45:59.601Z,12.17
2022-11-19T06:48:26.760Z,10.10
2022-11-19T06:50:56.483Z,9.77
2022-11-19T06:53:28.295Z,9.07
2022-11-19T06:55:59.155Z,6.87
2022-11-19T06:58:26.807Z,5.30
2022-11-19T07:00:56.731Z,6.00
2022-11-19T07:03:24.619Z,7.60
2022-11-19T07:06:00.424Z,5.27
2022-11-19T07:08:33.606Z,5.20
2022-11-19T07:11:01.454Z,7.77
2022-11-19T07:13:50.978Z,5.50
2022-11-19T07:16:22.596Z,6.20
2022-11-19T07:18:49.708Z,8.53
2022-11-19T07:21:18.845Z,7.43
2022-11-19T07:23:48.181Z,6.13
2022-11-19T07:26:15.351Z,7.33
2022-11-19T07:28:42.446Z,8.70
2022-11-19T07:31:09.684Z,7.60
2022-11-19T07:33:39.351Z,7.50
2022-11-19T07:36:10.674Z,7.70
2022-11-19T07:38:43.355Z,7.17
2022-11-19T07:41:29.308Z,7.20
2022-11-19T07:43:56.489Z,8.50
2022-11-19T07:46:23.664Z,7.53
2022-11-19T07:48:55.527Z,7.77
2022-11-19T07:51:23.983Z,6.57
2022-11-19T07:53:51.753Z,7.00
2022-11-19T07:56:26.513Z,7.50
2022-11-19T07:58:55.726Z,8.17
2022-11-19T08:01:25.223Z,7.90
2022-11-19T08:03:56.780Z,8.93
2022-11-19T08:06:29.919Z,8.43
2022-11-19T08:08:57.236Z,8.20
2022-11-19T08:11:24.803Z,8.57
2022-11-19T08:13:54.841Z,8.80
2022-11-19T08:16:42.927Z,8.90
2022-11-19T08:19:15.630Z,9.33
2022-11-19T08:21:46.242Z,8.23
2022-11-19T08:24:14.858Z,9.23
2022-11-19T08:26:45.596Z,9.80
2022-11-19T08:29:16.424Z,10.33
2022-11-19T08:31:48.141Z,9.83
2022-11-19T08:34:20.634Z,8.93
2022-11-19T08:36:50.208Z,8.97
2022-11-19T08:39:17.560Z,8.50
2022-11-19T08:42:05.527Z,8.80
2022-11-19T08:44:32.640Z,7.77
2022-11-19T08:46:59.750Z,7.73
2022-11-19T08:49:26.905Z,8.43
2022-11-19T08:51:54.109Z,7.57
2022-11-19T08:54:26.122Z,10.83
2022-11-19T08:56:53.487Z,9.53
2022-11-19T08:59:21.920Z,10.87
2022-11-19T09:01:51.683Z,10.30
2022-11-19T09:04:19.315Z,10.27
2022-11-19T09:06:48.684Z,10.70
2022-11-19T09:09:15.863Z,14.23
2022-11-19T09:11:45.051Z,12.13
2022-11-19T09:14:14.684Z,12.43
2022-11-19T09:16:44.119Z,12.33
2022-11-19T09:19:11.220Z,15.90
2022-11-19T09:21:40.858Z,16.17
2022-11-19T09:24:08.009Z,18.53
2022-11-19T09:26:35.520Z,16.43
2022-11-19T09:29:02.771Z,16.97
2022-11-19T09:31:29.951Z,17.23
2022-11-19T09:33:59.779Z,21.23
2022-11-19T09:36:29.100Z,18.27
2022-11-19T09:38:57.888Z,17.57
2022-11-19T09:41:59.970Z,21.27
2022-11-19T09:44:41.166Z,20.93
2022-11-19T09:47:32.379Z,20.93
2022-11-19T09:50:19.155Z,18.33
2022-11-19T09:53:07.069Z,19.87
2022-11-19T09:55:38.494Z,19.37
2022-11-19T09:58:14.552Z,21.20
2022-11-19T10:00:44.485Z,21.07
2022-11-19T10:03:15.642Z,20.33
2022-11-19T10:06:21.826Z,21.03
2022-11-19T10:08:53.873Z,20.30
2022-11-19T10:11:46.292Z,20.30
2022-11-19T10:14:41.333Z,21.27
2022-11-19T10:17:35.888Z,22.10
2022-11-19T10:20:02.933Z,22.03
2022-11-19T10:22:45.330Z,25.13
2022-11-19T10:25:33.206Z,26.83
2022-11-19T10:28:31.516Z,24.30
2022-11-19T10:31:18.073Z,27.17
2022-11-19T10:33:54.609Z,29.27
2022-11-19T10:36:31.860Z,25.87
2022-11-19T10:39:13.435Z,25.10
2022-11-19T10:41:45.609Z,29.63
2022-11-19T10:44:48.547Z,24.57
2022-11-19T10:47:39.888Z,24.53
2022-11-19T10:50:15.103Z,24.90
2022-11-19T10:52:46.539Z,25.20
2022-11-19T10:55:19.325Z,27.50
2022-11-19T10:57:50.700Z,28.67
2022-11-19T11:00:22.975Z,30.47
2022-11-19T11:02:57.132Z,33.17
2022-11-19T11:05:26.711Z,34.20
2022-11-19T11:08:10.774Z,31.47
2022-11-19T11:10:44.085Z,28.67
2022-11-19T11:13:32.591Z,34.17
2022-11-19T11:16:04.234Z,29.83
2022-11-19T11:18:32.091Z,27.00
2022-11-19T11:21:02.405Z,29.13
2022-11-19T11:23:32.429Z,28.40
2022-11-19T11:26:11.280Z,25.90
2022-11-19T11:29:05.293Z,24.80
2022-11-19T11:31:36.622Z,25.00
2022-11-19T11:34:05.884Z,27.37
2022-11-19T11:36:37.001Z,28.40
2022-11-19T11:39:05.656Z,24.23
2022-11-19T11:44:22.828Z,25.20
2022-11-19T11:46:57.886Z,30.50
2022-11-19T11:49:37.558Z,31.10
2022-11-19T11:52:16.391Z,34.50
2022-11-19T11:55:01.361Z,30.23
2022-11-19T11:57:33.190Z,30.03
2022-11-19T12:00:05.312Z,29.60
2022-11-19T12:02:37.575Z,32.37
2022-11-19T12:05:22.642Z,32.67
2022-11-19T12:08:22.860Z,31.30
2022-11-19T12:11:18.966Z,35.37
2022-11-19T12:14:11.320Z,32.00
2022-11-19T12:17:17.354Z,33.10
2022-11-19T12:20:03.808Z,28.00
2022-11-19T12:23:00.687Z,30.43
2022-11-19T12:25:49.111Z,30.13
2022-11-19T12:28:42.241Z,27.87
2022-11-19T12:31:12.056Z,27.00
2022-11-19T12:34:26.074Z,27.00
2022-11-19T12:37:12.624Z,24.30
2022-11-19T12:40:07.454Z,24.27
2022-11-19T12:43:15.322Z,24.23
2022-11-19T12:46:07.277Z,29.40
2022-11-19T12:49:01.119Z,26.30
2022-11-19T12:51:46.735Z,28.87
2022-11-19T12:54:34.918Z,28.43
2022-11-19T12:57:42.014Z,30.50
2022-11-19T13:00:19.550Z,39.03
2022-11-19T13:03:16.827Z,35.90
2022-11-19T13:06:02.797Z,34.83
2022-11-19T13:08:38.463Z,36.60
2022-11-19T13:11:17.561Z,35.93
2022-11-19T13:13:49.412Z,37.07
2022-11-19T13:16:20.730Z,37.10
2022-11-19T13:18:53.645Z,35.87
2022-11-19T13:21:23.563Z,40.43
2022-11-19T13:23:52.536Z,39.17
2022-11-19T13:26:29.857Z,39.50
2022-11-19T13:29:25.627Z,39.03
2022-11-19T13:32:02.248Z,41.77
2022-11-19T13:34:45.292Z,42.37
2022-11-19T13:37:38.967Z,43.17
2022-11-19T13:40:25.046Z,42.90
2022-11-19T13:46:09.315Z,46.67
2022-11-19T13:48:48.890Z,44.43
2022-11-19T13:51:31.555Z,43.60
2022-11-19T13:54:05.055Z,47.30
2022-11-19T13:56:41.889Z,46.10
2022-11-19T13:59:40.482Z,46.93
2022-11-19T14:02:28.882Z,52.63
2022-11-19T14:05:10.886Z,53.07
2022-11-19T14:07:59.698Z,55.93
2022-11-19T14:10:31.745Z,49.70
2022-11-19T14:13:23.137Z,53.07
2022-11-19T14:16:34.233Z,52.37
2022-11-19T14:19:29.760Z,55.70
2022-11-19T14:22:17.253Z,58.80
2022-11-19T14:25:06.136Z,55.73
2022-11-19T14:27:35.675Z,53.33
2022-11-19T14:30:02.813Z,54.90
2022-11-19T14:32:47.636Z,56.47
2022-11-19T14:35:27.451Z,53.03
2022-11-19T14:38:08.160Z,58.23
2022-11-19T14:40:44.075Z,57.87
2022-11-19T14:43:42.433Z,60.03
2022-11-19T14:46:09.576Z,57.80
2022-11-19T14:48:39.563Z,53.77
2022-11-19T14:51:12.025Z,60.00
2022-11-19T14:53:51.029Z,61.80
2022-11-19T14:56:24.012Z,62.80
2022-11-19T14:58:54.416Z,64.33
2022-11-19T15:01:23.299Z,67.97
2022-11-19T15:04:03.824Z,63.80
2022-11-19T15:06:36.528Z,63.73
2022-11-19T15:09:03.858Z,65.20
2022-11-19T15:11:58.340Z,61.23
2022-11-19T15:14:31.680Z,62.07
2022-11-19T15:17:06.311Z,58.33
2022-11-19T15:19:44.834Z,66.20
2022-11-19T15:22:21.203Z,55.20
2022-11-19T15:25:23.236Z,63.40
2022-11-19T15:28:08.927Z,59.10
2022-11-19T15:31:02.316Z,66.47
2022-11-19T15:33:51.784Z,63.60
2022-11-19T15:36:39.691Z,62.67
2022-11-19T15:39:33.678Z,59.47
2022-11-19T15:42:04.845Z,59.83
2022-11-19T15:44:48.078Z,54.50
2022-11-19T15:47:41.652Z,68.03
2022-11-19T15:50:28.194Z,65.30
2022-11-19T15:53:14.318Z,65.80
2022-11-19T15:55:51.789Z,60.50
2022-11-19T15:58:25.766Z,66.77
2022-11-19T16:00:56.146Z,70.30
2022-11-19T16:03:26.302Z,71.03
2022-11-19T16:06:21.895Z,79.10
2022-11-19T16:08:53.754Z,83.63
2022-11-19T16:11:44.488Z,89.40
2022-11-19T16:14:59.787Z,85.93
2022-11-19T16:17:46.279Z,80.10
2022-11-19T16:20:19.231Z,83.47
2022-11-19T16:23:05.631Z,85.27
2022-11-19T16:25:34.447Z,84.97
2022-11-19T16:28:20.182Z,89.33
2022-11-19T16:30:53.065Z,84.43
2022-11-19T16:33:28.388Z,78.47
2022-11-19T16:36:20.772Z,90.73
2022-11-19T16:38:50.225Z,77.97
2022-11-19T16:41:40.903Z,77.77
2022-11-19T16:44:18.288Z,75.30
2022-11-19T16:46:46.235Z,82.03
2022-11-19T16:49:55.575Z,76.73
2022-11-19T16:52:43.386Z,78.17
2022-11-19T16:55:21.010Z,76.60
2022-11-19T16:57:50.461Z,73.07
2022-11-19T17:00:21.678Z,71.83
2022-11-19T17:02:51.636Z,78.37
2022-11-19T17:05:22.505Z,69.40
2022-11-19T17:08:19.438Z,75.30
2022-11-19T17:10:47.217Z,72.50
2022-11-19T17:13:20.627Z,71.43
2022-11-19T17:15:49.261Z,67.47
2022-11-19T17:18:35.194Z,64.53
2022-11-19T17:21:21.961Z,66.00
2022-11-19T17:23:51.263Z,66.60
2022-11-19T17:26:23.693Z,68.43
2022-11-19T17:29:09.710Z,66.67
2022-11-19T17:31:37.086Z,55.50
2022-11-19T17:34:19.425Z,68.83
2022-11-19T17:36:49.145Z,73.13
2022-11-19T17:39:21.072Z,68.33
2022-11-19T17:42:13.758Z,68.77
2022-11-19T17:44:41.618Z,72.60
2022-11-19T17:47:22.419Z,77.87
2022-11-19T17:49:53.338Z,71.17
2022-11-19T17:52:22.563Z,93.00
2022-11-19T17:54:57.448Z,84.80
2022-11-19T17:57:27.103Z,87.80
2022-11-19T17:59:56.365Z,80.37
2022-11-19T18:02:27.052Z,71.30
2022-11-19T18:04:56.689Z,82.30
2022-11-19T18:07:25.964Z,81.43
2022-11-19T18:09:53.202Z,81.67
2022-11-19T18:12:20.652Z,76.73
2022-11-19T18:14:50.099Z,84.73
2022-11-19T18:17:24.394Z,76.90
2022-11-19T18:19:51.551Z,94.57
2022-11-19T18:22:20.823Z,79.97
2022-11-19T18:24:51.404Z,79.67
2022-11-19T18:27:20.878Z,72.90
2022-11-19T18:29:47.974Z,78.40
2022-11-19T18:32:17.667Z,75.27
2022-11-19T18:34:47.046Z,76.77
2022-11-19T18:37:14.351Z,76.70
2022-11-19T18:39:41.510Z,73.87
2022-11-19T18:42:11.854Z,73.57
2022-11-19T18:44:41.609Z,74.73
2022-11-19T18:47:13.619Z,75.70
2022-11-19T18:49:41.640Z,78.57
2022-11-19T18:52:12.195Z,83.93
2022-11-19T18:54:41.826Z,72.97
2022-11-19T18:57:12.034Z,79.93
2022-11-19T18:59:41.752Z,72.40
2022-11-19T19:02:12.212Z,79.70
2022-11-19T19:04:39.379Z,71.30
2022-11-19T19:07:08.683Z,71.60
2022-11-19T19:09:40.997Z,74.90
2022-11-19T19:12:19.604Z,73.77
2022-11-19T19:14:49.126Z,69.43
2022-11-19T19:17:18.973Z,63.47
2022-11-19T19:19:49.676Z,65.87
2022-11-19T19:22:18.919Z,58.33
2022-11-19T19:24:46.880Z,56.97
2022-11-19T19:27:15.083Z,59.43
2022-11-19T19:29:42.501Z,54.80
2022-11-19T19:32:10.032Z,55.10
2022-11-19T19:34:37.270Z,50.43
2022-11-19T19:37:06.066Z,55.27
2022-11-19T19:39:37.956Z,49.87
2022-11-19T19:42:05.163Z,48.73
2022-11-19T19:44:32.277Z,43.03
2022-11-19T19:46:59.545Z,44.93
2022-11-19T19:49:26.924Z,42.93
2022-11-19T19:51:56.466Z,42.53
2022-11-19T19:54:23.676Z,37.73
2022-11-19T19:56:53.229Z,40.23
2022-11-19T19:59:23.243Z,36.47
2022-11-19T20:01:51.601Z,36.53
2022-11-19T20:04:18.806Z,39.17
2022-11-19T20:06:47.515Z,40.53
2022-11-19T20:09:16.951Z,40.03
2022-11-19T20:11:46.280Z,35.70
2022-11-19T20:14:13.449Z,37.70
2022-11-19T20:16:45.099Z,39.80
2022-11-19T20:19:18.542Z,39.10
2022-11-19T20:21:47.071Z,42.47
2022-11-19T20:24:17.414Z,41.10
2022-11-19T20:26:47.263Z,39.73
2022-11-19T20:29:16.312Z,39.33
2022-11-19T20:31:52.254Z,37.30
2022-11-19T20:34:21.421Z,38.87
2022-11-19T20:36:53.883Z,39.27
2022-11-19T20:39:23.661Z,41.30
2022-11-19T20:42:13.924Z,35.20
2022-11-19T20:44:45.647Z,33.40
2022-11-19T20:47:12.772Z,36.03
2022-11-19T20:49:39.950Z,36.93
2022-11-19T20:52:07.997Z,34.17
2022-11-19T20:54:37.400Z,34.23
2022-11-19T20:57:08.948Z,39.07
2022-11-19T20:59:36.099Z,35.87
2022-11-19T21:02:05.714Z,36.87
2022-11-19T21:04:37.155Z,35.67
2022-11-19T21:07:07.385Z,36.33
2022-11-19T21:09:34.600Z,33.47
2022-11-19T21:12:03.990Z,37.53
2022-11-19T21:14:31.176Z,32.33
2022-11-19T21:16:58.389Z,32.87
2022-11-19T21:19:27.657Z,33.27
2022-11-19T21:21:54.769Z,33.27
2022-11-19T21:24:22.092Z,39.03
2022-11-19T21:26:49.507Z,33.90
2022-11-19T21:29:19.376Z,36.43
2022-11-19T21:31:48.644Z,36.73
2022-11-19T21:34:23.420Z,33.33
2022-11-19T21:36:53.396Z,34.83
2022-11-19T21:39:21.041Z,35.60
2022-11-19T21:41:48.596Z,34.67
2022-11-19T21:44:21.996Z,32.97
2022-11-19T21:46:51.914Z,31.70
2022-11-19T21:49:19.494Z,32.37
2022-11-19T21:51:47.003Z,34.13
2022-11-19T21:54:16.957Z,33.53
2022-11-19T21:56:47.388Z,30.93
2022-11-19T21:59:14.555Z,31.57
2022-11-19T22:01:41.826Z,32.27
2022-11-19T22:04:09.102Z,33.53
2022-11-19T22:06:36.201Z,31.60
2022-11-19T22:09:03.485Z,36.23
2022-11-19T22:11:31.219Z,33.70
2022-11-19T22:14:03.992Z,31.63
2022-11-19T22:16:34.117Z,30.53
2022-11-19T22:19:01.456Z,30.87
2022-11-19T22:21:30.708Z,29.87
2022-11-19T22:24:00.319Z,30.73
2022-11-19T22:26:29.979Z,32.77
2022-11-19T22:28:59.621Z,31.33
2022-11-19T22:31:26.808Z,30.23
2022-11-19T22:33:54.905Z,31.53
2022-11-19T22:36:22.991Z,31.83
2022-11-19T22:38:54.207Z,32.27
2022-11-19T22:41:24.057Z,28.53
2022-11-19T22:43:53.661Z,33.27
2022-11-19T22:46:21.276Z,30.77
2022-11-19T22:48:48.557Z,30.40
2022-11-19T22:51:26.045Z,32.33
2022-11-19T22:53:54.232Z,32.83
2022-11-19T22:56:24.861Z,29.57
2022-11-19T22:58:52.835Z,28.40
2022-11-19T23:01:27.403Z,30.37
2022-11-19T23:04:06.004Z,32.63
2022-11-19T23:06:40.415Z,30.57
2022-11-19T23:09:10.266Z,32.77
2022-11-19T23:11:55.968Z,30.70
2022-11-19T23:14:25.637Z,31.03
2022-11-19T23:16:52.775Z,33.03
2022-11-19T23:19:22.542Z,30.27
2022-11-19T23:21:49.939Z,30.67
2022-11-19T23:24:19.435Z,30.03
2022-11-19T23:26:46.603Z,27.67
2022-11-19T23:29:16.134Z,31.10
2022-11-19T23:31:43.262Z,30.73
2022-11-19T23:34:10.373Z,33.60
2022-11-19T23:36:39.989Z,29.63
2022-11-19T23:39:10.373Z,29.87
2022-11-19T23:41:40.258Z,27.47
2022-11-19T23:44:10.232Z,29.20
2022-11-19T23:46:37.552Z,29.13
2022-11-19T23:49:05.969Z,31.13
2022-11-19T23:51:36.003Z,31.83
2022-11-19T23:54:05.625Z,32.10
2022-11-19T23:56:34.586Z,29.83
2022-11-19T23:59:03.151Z,29.57
